Impacts METAR Board
IDs:

KPHL - Philadelphia Intl, PA, US

Updated at: 1300 UTC 23 Jun 2018
Potential Impact None Slight Moderate High
Time 23/01Z 23/02Z 23/03Z 23/04Z 23/05Z 23/06Z 23/07Z 23/08Z 23/09Z 23/10Z 23/11Z 23/12Z 23/13Z
Temp64 64 65 65 65 65 65 64 64 63 63 64 64
Dewpt61 62 63 63 64 64 63 62 62 62 62 63 63
Altim29.97 29.96 29.95 29.93 29.93 29.90 29.89 29.86 29.86 29.85 29.85 29.85 29.86
VIS4 10 10 10 7 9 10 10 10 8 7 5 5
CIG26 55 10 7 7 8 6 9 8 7 6 5 5
CoverOVCOVCOVCOVCOVCOVCOVCOVCOVCOVCOVCOVCOVC
FltCatMVFRVFRMVFRIFRIFRIFRIFRIFRIFRIFRIFRIFRIFR
WXRA BR---RA---RA------------BR-DZ BR
WDir90607080906060606060606050
WSpd7 8 11 10 11 8 10 11 8 10 7 6 7
WGst-- 16 -- -- -- -- -- -- -- 18 -- -- --
Raw hourly METARs
KPHL 230054Z 09007KT 4SM RA BR FEW018 BKN026 OVC049 18/16 A2997 RMK AO2 SLP148 P0009 T01780161
KPHL 230154Z 06008G16KT 10SM SCT012 SCT049 OVC055 18/17 A2996 RMK AO2 RAE45 SLP145 P0006 T01780167 $
KPHL 230254Z 07011KT 10SM -RA BKN010 OVC015 18/17 A2995 RMK AO2 RAB52 SLP142 P0000 60015 T01830172 58006 $
KPHL 230354Z 08010KT 10SM OVC007 18/17 A2993 RMK AO2 RAE22 SLP135 P0000 T01830172 $
KPHL 230503Z 09011KT 7SM -RA OVC007 18/18 A2993 RMK AO2 P0000 T01830178 $
KPHL 230554Z 06008KT 9SM OVC008 18/18 A2990 RMK AO2 RAE30 SLP125 P0001 60016 T01830178 10189 20172 58017 $
KPHL 230654Z 06010KT 10SM OVC006 18/17 A2989 RMK AO2 SLP121 T01830172 $
KPHL 230754Z 06011KT 10SM OVC009 18/17 A2986 RMK AO2 SLP111 T01780167 $
KPHL 230854Z 06008KT 10SM OVC008 18/17 A2986 RMK AO2 SLP111 T01780167 56015 $
KPHL 230954Z 06010G18KT 8SM OVC007 17/17 A2985 RMK AO2 RAB0857E36DZB36E45 SLP107 P0000 T01720167 $
KPHL 231054Z 06007KT 7SM OVC006 17/17 A2985 RMK AO2 SLP109 T01720167 $
KPHL 231159Z 06006KT 5SM BR OVC005 18/17 A2985 RMK AO2 CIG 004V006 T01780172 $
KPHL 231254Z 05007KT 5SM -DZ BR OVC005 18/17 A2986 RMK AO2 DZB44 SLP112 CIG 004V006 P0000 T01780172



Page loaded:  13:54 UTC  |   06:54 AM Pacific  |   07:54 AM Mountain  |   08:54 AM Central  |   09:54 AM Eastern

 

ADVISORIES

FORECASTS

FORECASTS

OBSERVATIONS

USER TOOLS

ABOUT US